sensor_id;sensor_type;location;lat;lon;timestamp;temperature;humidity
40053;DHT22;25758;48.200;16.338;2023-04-07T00:00:34;7.90;68.70
40053;DHT22;25758;48.200;16.338;2023-04-07T00:03:00;7.90;68.80
40053;DHT22;25758;48.200;16.338;2023-04-07T00:05:26;8.10;68.90
40053;DHT22;25758;48.200;16.338;2023-04-07T00:07:52;7.80;68.10
40053;DHT22;25758;48.200;16.338;2023-04-07T00:10:18;7.80;68.10
40053;DHT22;25758;48.200;16.338;2023-04-07T00:15:09;7.80;68.30
40053;DHT22;25758;48.200;16.338;2023-04-07T00:17:35;7.80;68.40
40053;DHT22;25758;48.200;16.338;2023-04-07T00:20:01;7.80;68.20
40053;DHT22;25758;48.200;16.338;2023-04-07T00:22:26;7.90;68.70
40053;DHT22;25758;48.200;16.338;2023-04-07T00:24:52;7.80;68.20
40053;DHT22;25758;48.200;16.338;2023-04-07T00:29:44;7.80;68.10
40053;DHT22;25758;48.200;16.338;2023-04-07T00:32:11;7.80;68.20
40053;DHT22;25758;48.200;16.338;2023-04-07T00:34:37;7.80;68.80
40053;DHT22;25758;48.200;16.338;2023-04-07T00:37:02;7.70;68.80
40053;DHT22;25758;48.200;16.338;2023-04-07T00:39:28;7.80;68.60
40053;DHT22;25758;48.200;16.338;2023-04-07T00:41:54;7.70;68.60
40053;DHT22;25758;48.200;16.338;2023-04-07T00:44:20;7.70;68.70
40053;DHT22;25758;48.200;16.338;2023-04-07T00:46:46;7.70;69.00
40053;DHT22;25758;48.200;16.338;2023-04-07T00:49:13;7.70;69.10
40053;DHT22;25758;48.200;16.338;2023-04-07T00:51:39;7.70;68.80
40053;DHT22;25758;48.200;16.338;2023-04-07T00:54:05;8.00;68.90
40053;DHT22;25758;48.200;16.338;2023-04-07T00:56:31;7.70;68.90
40053;DHT22;25758;48.200;16.338;2023-04-07T00:58:57;7.70;68.60
40053;DHT22;25758;48.200;16.338;2023-04-07T01:01:27;7.70;68.70
40053;DHT22;25758;48.200;16.338;2023-04-07T01:04:04;7.60;68.70
40053;DHT22;25758;48.200;16.338;2023-04-07T01:06:34;7.70;69.30
40053;DHT22;25758;48.200;16.338;2023-04-07T01:09:15;7.60;69.00
40053;DHT22;25758;48.200;16.338;2023-04-07T01:12:01;7.70;69.00
40053;DHT22;25758;48.200;16.338;2023-04-07T01:14:32;7.60;69.00
40053;DHT22;25758;48.200;16.338;2023-04-07T01:17:02;7.60;68.90
40053;DHT22;25758;48.200;16.338;2023-04-07T01:19:42;8.10;69.20
40053;DHT22;25758;48.200;16.338;2023-04-07T01:22:14;7.80;69.10
40053;DHT22;25758;48.200;16.338;2023-04-07T01:25:01;7.60;69.10
40053;DHT22;25758;48.200;16.338;2023-04-07T01:30:01;7.60;69.30
40053;DHT22;25758;48.200;16.338;2023-04-07T01:32:29;7.70;69.10
40053;DHT22;25758;48.200;16.338;2023-04-07T01:34:56;7.50;69.10
40053;DHT22;25758;48.200;16.338;2023-04-07T01:37:23;7.60;69.10
40053;DHT22;25758;48.200;16.338;2023-04-07T01:39:49;7.60;69.20
40053;DHT22;25758;48.200;16.338;2023-04-07T01:42:15;7.60;69.30
40053;DHT22;25758;48.200;16.338;2023-04-07T01:44:43;7.50;68.90
40053;DHT22;25758;48.200;16.338;2023-04-07T01:47:10;7.50;68.80
40053;DHT22;25758;48.200;16.338;2023-04-07T01:49:37;8.00;69.50
40053;DHT22;25758;48.200;16.338;2023-04-07T01:52:04;7.50;68.90
40053;DHT22;25758;48.200;16.338;2023-04-07T01:56:57;7.50;69.00
40053;DHT22;25758;48.200;16.338;2023-04-07T01:59:22;7.60;69.40
40053;DHT22;25758;48.200;16.338;2023-04-07T02:01:48;7.50;69.30
40053;DHT22;25758;48.200;16.338;2023-04-07T02:06:52;7.50;69.40
40053;DHT22;25758;48.200;16.338;2023-04-07T02:09:20;7.50;69.50
40053;DHT22;25758;48.200;16.338;2023-04-07T02:11:48;7.50;69.70
40053;DHT22;25758;48.200;16.338;2023-04-07T02:14:15;8.60;70.40
40053;DHT22;25758;48.200;16.338;2023-04-07T02:16:42;7.40;69.20
40053;DHT22;25758;48.200;16.338;2023-04-07T02:19:09;7.50;69.70
40053;DHT22;25758;48.200;16.338;2023-04-07T02:21:35;7.40;69.30
40053;DHT22;25758;48.200;16.338;2023-04-07T02:24:04;7.40;69.90
40053;DHT22;25758;48.200;16.338;2023-04-07T02:26:34;7.40;69.70
40053;DHT22;25758;48.200;16.338;2023-04-07T02:29:01;7.40;69.90
40053;DHT22;25758;48.200;16.338;2023-04-07T02:31:27;7.40;70.00
40053;DHT22;25758;48.200;16.338;2023-04-07T02:33:52;7.40;69.40
40053;DHT22;25758;48.200;16.338;2023-04-07T02:36:18;7.40;69.80
40053;DHT22;25758;48.200;16.338;2023-04-07T02:38:43;7.40;69.80
40053;DHT22;25758;48.200;16.338;2023-04-07T02:46:01;7.40;69.60
40053;DHT22;25758;48.200;16.338;2023-04-07T02:48:27;7.40;70.30
40053;DHT22;25758;48.200;16.338;2023-04-07T02:50:52;7.40;70.40
40053;DHT22;25758;48.200;16.338;2023-04-07T02:53:18;7.40;70.40
40053;DHT22;25758;48.200;16.338;2023-04-07T02:55:44;7.40;70.50
40053;DHT22;25758;48.200;16.338;2023-04-07T02:58:10;7.40;70.30
40053;DHT22;25758;48.200;16.338;2023-04-07T03:00:35;8.00;70.60
40053;DHT22;25758;48.200;16.338;2023-04-07T03:03:01;7.40;70.10
40053;DHT22;25758;48.200;16.338;2023-04-07T03:05:27;7.50;70.20
40053;DHT22;25758;48.200;16.338;2023-04-07T03:07:52;7.60;70.20
40053;DHT22;25758;48.200;16.338;2023-04-07T03:10:18;7.30;69.70
40053;DHT22;25758;48.200;16.338;2023-04-07T03:12:43;7.30;69.70
40053;DHT22;25758;48.200;16.338;2023-04-07T03:15:09;7.30;69.60
40053;DHT22;25758;48.200;16.338;2023-04-07T03:17:35;7.30;69.80
40053;DHT22;25758;48.200;16.338;2023-04-07T03:20:00;7.20;69.70
40053;DHT22;25758;48.200;16.338;2023-04-07T03:22:26;7.20;69.70
40053;DHT22;25758;48.200;16.338;2023-04-07T03:24:52;7.20;69.90
40053;DHT22;25758;48.200;16.338;2023-04-07T03:27:17;7.20;69.80
40053;DHT22;25758;48.200;16.338;2023-04-07T03:29:44;7.20;70.30
40053;DHT22;25758;48.200;16.338;2023-04-07T03:32:11;7.20;70.50
40053;DHT22;25758;48.200;16.338;2023-04-07T03:34:37;7.30;70.60
40053;DHT22;25758;48.200;16.338;2023-04-07T03:37:02;7.20;70.10
40053;DHT22;25758;48.200;16.338;2023-04-07T03:39:28;7.10;70.10
40053;DHT22;25758;48.200;16.338;2023-04-07T03:41:53;7.30;70.90
40053;DHT22;25758;48.200;16.338;2023-04-07T03:44:20;7.10;70.70
40053;DHT22;25758;48.200;16.338;2023-04-07T03:46:46;7.10;70.70
40053;DHT22;25758;48.200;16.338;2023-04-07T03:49:13;7.10;70.30
40053;DHT22;25758;48.200;16.338;2023-04-07T03:51:38;7.70;71.30
40053;DHT22;25758;48.200;16.338;2023-04-07T03:54:04;7.10;71.10
40053;DHT22;25758;48.200;16.338;2023-04-07T03:56:30;7.10;71.20
40053;DHT22;25758;48.200;16.338;2023-04-07T03:58:56;7.10;71.60
40053;DHT22;25758;48.200;16.338;2023-04-07T04:01:22;7.10;71.10
40053;DHT22;25758;48.200;16.338;2023-04-07T04:03:48;7.10;70.80
40053;DHT22;25758;48.200;16.338;2023-04-07T04:06:14;7.00;70.80
40053;DHT22;25758;48.200;16.338;2023-04-07T04:08:39;7.00;70.70
40053;DHT22;25758;48.200;16.338;2023-04-07T04:11:05;7.00;70.80
40053;DHT22;25758;48.200;16.338;2023-04-07T04:13:31;7.00;70.80
40053;DHT22;25758;48.200;16.338;2023-04-07T04:15:56;7.00;71.00
40053;DHT22;25758;48.200;16.338;2023-04-07T04:18:22;7.00;70.90
40053;DHT22;25758;48.200;16.338;2023-04-07T04:20:48;7.00;70.90
40053;DHT22;25758;48.200;16.338;2023-04-07T04:23:14;7.00;70.90
40053;DHT22;25758;48.200;16.338;2023-04-07T04:25:40;7.00;71.30
40053;DHT22;25758;48.200;16.338;2023-04-07T04:28:06;7.10;71.30
40053;DHT22;25758;48.200;16.338;2023-04-07T04:30:31;7.00;71.40
40053;DHT22;25758;48.200;16.338;2023-04-07T04:32:57;7.00;71.40
40053;DHT22;25758;48.200;16.338;2023-04-07T04:35:23;7.00;71.50
40053;DHT22;25758;48.200;16.338;2023-04-07T04:37:48;7.00;71.50
40053;DHT22;25758;48.200;16.338;2023-04-07T04:40:14;7.00;71.40
40053;DHT22;25758;48.200;16.338;2023-04-07T04:45:06;7.00;71.10
40053;DHT22;25758;48.200;16.338;2023-04-07T04:47:32;7.00;71.40
40053;DHT22;25758;48.200;16.338;2023-04-07T04:49:58;7.00;71.00
40053;DHT22;25758;48.200;16.338;2023-04-07T04:52:24;7.00;71.10
40053;DHT22;25758;48.200;16.338;2023-04-07T04:54:49;7.00;71.10
40053;DHT22;25758;48.200;16.338;2023-04-07T04:57:15;7.80;72.10
40053;DHT22;25758;48.200;16.338;2023-04-07T04:59:41;7.10;71.50
40053;DHT22;25758;48.200;16.338;2023-04-07T05:02:07;7.10;71.10
40053;DHT22;25758;48.200;16.338;2023-04-07T05:04:32;7.10;71.50
40053;DHT22;25758;48.200;16.338;2023-04-07T05:06:58;7.10;71.80
40053;DHT22;25758;48.200;16.338;2023-04-07T05:09:24;7.00;71.20
40053;DHT22;25758;48.200;16.338;2023-04-07T05:11:50;7.10;71.20
40053;DHT22;25758;48.200;16.338;2023-04-07T05:14:15;7.10;71.00
40053;DHT22;25758;48.200;16.338;2023-04-07T05:16:41;7.10;71.10
40053;DHT22;25758;48.200;16.338;2023-04-07T05:19:07;7.10;71.10
40053;DHT22;25758;48.200;16.338;2023-04-07T05:21:32;7.10;71.20
40053;DHT22;25758;48.200;16.338;2023-04-07T05:23:58;7.20;71.50
40053;DHT22;25758;48.200;16.338;2023-04-07T05:26:23;7.10;71.20
40053;DHT22;25758;48.200;16.338;2023-04-07T05:28:49;7.10;71.70
40053;DHT22;25758;48.200;16.338;2023-04-07T05:31:15;7.10;71.00
40053;DHT22;25758;48.200;16.338;2023-04-07T05:33:41;7.10;71.00
40053;DHT22;25758;48.200;16.338;2023-04-07T05:36:06;7.10;71.20
40053;DHT22;25758;48.200;16.338;2023-04-07T05:38:32;7.10;71.20
40053;DHT22;25758;48.200;16.338;2023-04-07T05:40:58;7.10;71.20
40053;DHT22;25758;48.200;16.338;2023-04-07T05:43:23;7.10;71.00
40053;DHT22;25758;48.200;16.338;2023-04-07T05:45:49;7.30;71.60
40053;DHT22;25758;48.200;16.338;2023-04-07T05:48:14;7.20;71.10
40053;DHT22;25758;48.200;16.338;2023-04-07T05:50:41;7.30;71.70
40053;DHT22;25758;48.200;16.338;2023-04-07T05:53:06;7.20;71.60
40053;DHT22;25758;48.200;16.338;2023-04-07T05:55:32;7.20;71.20
40053;DHT22;25758;48.200;16.338;2023-04-07T05:57:58;7.20;71.70
40053;DHT22;25758;48.200;16.338;2023-04-07T06:00:24;7.20;71.00
40053;DHT22;25758;48.200;16.338;2023-04-07T06:07:42;7.30;71.00
40053;DHT22;25758;48.200;16.338;2023-04-07T06:10:07;7.30;71.10
40053;DHT22;25758;48.200;16.338;2023-04-07T06:12:33;7.30;71.00
40053;DHT22;25758;48.200;16.338;2023-04-07T06:14:59;7.40;71.00
40053;DHT22;25758;48.200;16.338;2023-04-07T06:17:24;7.40;71.60
40053;DHT22;25758;48.200;16.338;2023-04-07T06:19:50;7.40;70.90
40053;DHT22;25758;48.200;16.338;2023-04-07T06:22:15;7.40;70.80
40053;DHT22;25758;48.200;16.338;2023-04-07T06:24:41;7.40;70.90
40053;DHT22;25758;48.200;16.338;2023-04-07T06:27:07;7.40;71.00
40053;DHT22;25758;48.200;16.338;2023-04-07T06:31:59;7.40;70.80
40053;DHT22;25758;48.200;16.338;2023-04-07T06:34:25;7.40;71.00
40053;DHT22;25758;48.200;16.338;2023-04-07T06:36:51;7.40;70.90
40053;DHT22;25758;48.200;16.338;2023-04-07T06:39:16;7.40;71.00
40053;DHT22;25758;48.200;16.338;2023-04-07T06:44:09;7.40;71.00
40053;DHT22;25758;48.200;16.338;2023-04-07T06:46:38;7.40;71.20
40053;DHT22;25758;48.200;16.338;2023-04-07T06:49:03;7.40;71.30
40053;DHT22;25758;48.200;16.338;2023-04-07T06:51:29;7.40;71.00
40053;DHT22;25758;48.200;16.338;2023-04-07T06:56:22;7.40;71.40
40053;DHT22;25758;48.200;16.338;2023-04-07T06:58:48;7.50;71.80
40053;DHT22;25758;48.200;16.338;2023-04-07T07:01:14;7.50;72.00
40053;DHT22;25758;48.200;16.338;2023-04-07T07:03:39;7.40;71.40
40053;DHT22;25758;48.200;16.338;2023-04-07T07:06:05;7.50;72.00
40053;DHT22;25758;48.200;16.338;2023-04-07T07:08:31;7.50;71.70
40053;DHT22;25758;48.200;16.338;2023-04-07T07:10:56;7.50;71.70
40053;DHT22;25758;48.200;16.338;2023-04-07T07:13:24;7.70;72.40
40053;DHT22;25758;48.200;16.338;2023-04-07T07:15:51;7.60;71.90
40053;DHT22;25758;48.200;16.338;2023-04-07T07:18:17;7.70;72.10
40053;DHT22;25758;48.200;16.338;2023-04-07T07:20:43;7.70;72.20
40053;DHT22;25758;48.200;16.338;2023-04-07T07:23:09;7.80;72.10
40053;DHT22;25758;48.200;16.338;2023-04-07T07:25:34;7.80;71.30
40053;DHT22;25758;48.200;16.338;2023-04-07T07:30:26;7.90;71.20
40053;DHT22;25758;48.200;16.338;2023-04-07T07:32:53;7.90;71.30
40053;DHT22;25758;48.200;16.338;2023-04-07T07:35:19;8.00;71.60
40053;DHT22;25758;48.200;16.338;2023-04-07T07:37:45;8.00;71.60
40053;DHT22;25758;48.200;16.338;2023-04-07T07:40:11;8.00;71.70
40053;DHT22;25758;48.200;16.338;2023-04-07T07:42:37;8.10;71.60
40053;DHT22;25758;48.200;16.338;2023-04-07T07:45:03;8.10;72.10
40053;DHT22;25758;48.200;16.338;2023-04-07T07:47:29;8.10;71.80
40053;DHT22;25758;48.200;16.338;2023-04-07T07:49:55;8.20;71.90
40053;DHT22;25758;48.200;16.338;2023-04-07T07:52:21;8.20;71.40
40053;DHT22;25758;48.200;16.338;2023-04-07T07:54:50;8.30;71.80
40053;DHT22;25758;48.200;16.338;2023-04-07T07:57:16;8.30;71.80
40053;DHT22;25758;48.200;16.338;2023-04-07T07:59:41;8.30;71.30
40053;DHT22;25758;48.200;16.338;2023-04-07T08:02:08;8.30;71.50
40053;DHT22;25758;48.200;16.338;2023-04-07T08:04:35;8.30;71.50
40053;DHT22;25758;48.200;16.338;2023-04-07T08:07:01;8.30;71.50
40053;DHT22;25758;48.200;16.338;2023-04-07T08:09:27;8.40;71.70
40053;DHT22;25758;48.200;16.338;2023-04-07T08:14:18;8.50;71.70
40053;DHT22;25758;48.200;16.338;2023-04-07T08:19:11;8.50;71.90
40053;DHT22;25758;48.200;16.338;2023-04-07T08:21:38;8.50;71.90
40053;DHT22;25758;48.200;16.338;2023-04-07T08:24:04;8.60;72.30
40053;DHT22;25758;48.200;16.338;2023-04-07T08:26:30;8.60;72.20
40053;DHT22;25758;48.200;16.338;2023-04-07T08:28:55;8.60;71.90
40053;DHT22;25758;48.200;16.338;2023-04-07T08:33:47;8.70;71.60
40053;DHT22;25758;48.200;16.338;2023-04-07T08:36:12;8.70;71.70
40053;DHT22;25758;48.200;16.338;2023-04-07T08:38:38;8.60;71.70
40053;DHT22;25758;48.200;16.338;2023-04-07T08:41:09;8.70;71.90
40053;DHT22;25758;48.200;16.338;2023-04-07T08:43:37;8.70;71.90
40053;DHT22;25758;48.200;16.338;2023-04-07T08:46:04;8.70;71.70
40053;DHT22;25758;48.200;16.338;2023-04-07T08:48:30;8.70;72.10
40053;DHT22;25758;48.200;16.338;2023-04-07T08:51:06;8.80;72.10
40053;DHT22;25758;48.200;16.338;2023-04-07T08:54:08;8.80;72.00
40053;DHT22;25758;48.200;16.338;2023-04-07T08:56:37;8.80;72.10
40053;DHT22;25758;48.200;16.338;2023-04-07T08:59:06;8.90;71.80
40053;DHT22;25758;48.200;16.338;2023-04-07T09:01:34;8.90;71.70
40053;DHT22;25758;48.200;16.338;2023-04-07T09:04:04;8.90;71.10
40053;DHT22;25758;48.200;16.338;2023-04-07T09:06:30;9.00;71.60
40053;DHT22;25758;48.200;16.338;2023-04-07T09:09:02;9.00;70.90
40053;DHT22;25758;48.200;16.338;2023-04-07T09:11:35;9.00;70.80
40053;DHT22;25758;48.200;16.338;2023-04-07T09:14:01;9.10;70.90
40053;DHT22;25758;48.200;16.338;2023-04-07T09:16:28;9.10;70.90
40053;DHT22;25758;48.200;16.338;2023-04-07T09:18:55;9.40;71.20
40053;DHT22;25758;48.200;16.338;2023-04-07T09:21:21;9.20;71.40
40053;DHT22;25758;48.200;16.338;2023-04-07T09:23:47;9.20;71.20
40053;DHT22;25758;48.200;16.338;2023-04-07T09:26:26;9.20;70.90
40053;DHT22;25758;48.200;16.338;2023-04-07T09:28:57;9.30;71.20
40053;DHT22;25758;48.200;16.338;2023-04-07T09:31:44;9.30;70.50
40053;DHT22;25758;48.200;16.338;2023-04-07T09:34:24;9.40;71.10
40053;DHT22;25758;48.200;16.338;2023-04-07T09:36:50;9.40;70.80
40053;DHT22;25758;48.200;16.338;2023-04-07T09:41:41;9.40;71.00
40053;DHT22;25758;48.200;16.338;2023-04-07T09:46:33;9.50;70.80
40053;DHT22;25758;48.200;16.338;2023-04-07T09:49:03;9.50;70.90
40053;DHT22;25758;48.200;16.338;2023-04-07T09:51:31;9.40;71.00
40053;DHT22;25758;48.200;16.338;2023-04-07T09:56:26;9.50;70.90
40053;DHT22;25758;48.200;16.338;2023-04-07T09:58:53;9.40;70.60
40053;DHT22;25758;48.200;16.338;2023-04-07T10:01:20;9.40;70.90
40053;DHT22;25758;48.200;16.338;2023-04-07T10:06:13;9.40;71.10
40053;DHT22;25758;48.200;16.338;2023-04-07T10:08:41;9.40;71.30
40053;DHT22;25758;48.200;16.338;2023-04-07T10:11:08;9.40;71.50
40053;DHT22;25758;48.200;16.338;2023-04-07T10:13:35;9.50;71.60
40053;DHT22;25758;48.200;16.338;2023-04-07T10:16:05;9.50;70.50
40053;DHT22;25758;48.200;16.338;2023-04-07T10:18:32;9.50;70.60
40053;DHT22;25758;48.200;16.338;2023-04-07T10:21:03;9.50;70.70
40053;DHT22;25758;48.200;16.338;2023-04-07T10:26:05;9.60;69.20
40053;DHT22;25758;48.200;16.338;2023-04-07T10:28:33;9.60;69.70
40053;DHT22;25758;48.200;16.338;2023-04-07T10:31:02;9.60;69.60
40053;DHT22;25758;48.200;16.338;2023-04-07T10:36:11;9.60;69.50
40053;DHT22;25758;48.200;16.338;2023-04-07T10:38:36;9.60;69.80
40053;DHT22;25758;48.200;16.338;2023-04-07T10:41:34;9.60;69.30
40053;DHT22;25758;48.200;16.338;2023-04-07T10:44:01;9.70;69.20
40053;DHT22;25758;48.200;16.338;2023-04-07T10:49:16;9.60;68.30
40053;DHT22;25758;48.200;16.338;2023-04-07T11:09:42;9.60;68.20
40053;DHT22;25758;48.200;16.338;2023-04-07T11:19:50;9.70;67.40
40053;DHT22;25758;48.200;16.338;2023-04-07T11:22:16;9.70;67.30
40053;DHT22;25758;48.200;16.338;2023-04-07T11:32:05;9.70;68.50
40053;DHT22;25758;48.200;16.338;2023-04-07T11:34:32;9.70;69.70
40053;DHT22;25758;48.200;16.338;2023-04-07T11:44:44;9.70;69.50
40053;DHT22;25758;48.200;16.338;2023-04-07T11:49:43;9.80;70.00
40053;DHT22;25758;48.200;16.338;2023-04-07T11:52:10;9.90;70.10
40053;DHT22;25758;48.200;16.338;2023-04-07T11:54:43;10.00;69.40
40053;DHT22;25758;48.200;16.338;2023-04-07T11:59:40;10.10;70.60
40053;DHT22;25758;48.200;16.338;2023-04-07T12:07:10;10.40;69.60
40053;DHT22;25758;48.200;16.338;2023-04-07T12:12:03;10.50;68.90
40053;DHT22;25758;48.200;16.338;2023-04-07T12:21:55;10.60;68.20
40053;DHT22;25758;48.200;16.338;2023-04-07T12:24:21;10.70;68.10
40053;DHT22;25758;48.200;16.338;2023-04-07T12:31:39;10.70;68.50
40053;DHT22;25758;48.200;16.338;2023-04-07T12:34:05;10.60;68.70
40053;DHT22;25758;48.200;16.338;2023-04-07T12:36:30;10.60;68.30
40053;DHT22;25758;48.200;16.338;2023-04-07T12:38:56;10.60;68.30
40053;DHT22;25758;48.200;16.338;2023-04-07T12:51:07;10.70;68.10
40053;DHT22;25758;48.200;16.338;2023-04-07T13:10:36;11.00;67.80
40053;DHT22;25758;48.200;16.338;2023-04-07T13:13:01;11.00;68.00
40053;DHT22;25758;48.200;16.338;2023-04-07T13:15:27;11.10;68.30
40053;DHT22;25758;48.200;16.338;2023-04-07T13:17:53;11.00;67.70
40053;DHT22;25758;48.200;16.338;2023-04-07T13:20:20;11.00;67.60
40053;DHT22;25758;48.200;16.338;2023-04-07T13:25:12;11.00;67.70
40053;DHT22;25758;48.200;16.338;2023-04-07T13:27:38;11.00;68.60
40053;DHT22;25758;48.200;16.338;2023-04-07T13:30:04;10.90;68.60
40053;DHT22;25758;48.200;16.338;2023-04-07T13:32:30;11.00;70.00
40053;DHT22;25758;48.200;16.338;2023-04-07T13:34:56;10.90;69.80
40053;DHT22;25758;48.200;16.338;2023-04-07T13:37:22;11.00;70.30
40053;DHT22;25758;48.200;16.338;2023-04-07T13:39:48;10.90;70.60
40053;DHT22;25758;48.200;16.338;2023-04-07T13:42:13;10.80;70.30
40053;DHT22;25758;48.200;16.338;2023-04-07T13:44:43;10.80;70.30
40053;DHT22;25758;48.200;16.338;2023-04-07T13:47:10;10.80;70.40
40053;DHT22;25758;48.200;16.338;2023-04-07T13:49:36;10.70;70.70
40053;DHT22;25758;48.200;16.338;2023-04-07T13:52:02;10.70;71.00
40053;DHT22;25758;48.200;16.338;2023-04-07T13:54:28;10.70;71.10
40053;DHT22;25758;48.200;16.338;2023-04-07T13:56:54;10.80;71.80
40053;DHT22;25758;48.200;16.338;2023-04-07T13:59:20;10.80;72.60
40053;DHT22;25758;48.200;16.338;2023-04-07T14:01:45;10.80;72.50
40053;DHT22;25758;48.200;16.338;2023-04-07T14:04:11;10.80;73.90
40053;DHT22;25758;48.200;16.338;2023-04-07T14:06:37;10.80;75.00
40053;DHT22;25758;48.200;16.338;2023-04-07T14:09:03;10.80;75.50
40053;DHT22;25758;48.200;16.338;2023-04-07T14:11:31;10.80;75.50
40053;DHT22;25758;48.200;16.338;2023-04-07T14:13:57;10.80;75.80
40053;DHT22;25758;48.200;16.338;2023-04-07T14:16:24;10.70;76.60
40053;DHT22;25758;48.200;16.338;2023-04-07T14:18:49;10.80;76.60
40053;DHT22;25758;48.200;16.338;2023-04-07T14:21:17;10.80;77.20
40053;DHT22;25758;48.200;16.338;2023-04-07T14:23:42;10.80;77.10
40053;DHT22;25758;48.200;16.338;2023-04-07T14:26:09;10.80;77.10
40053;DHT22;25758;48.200;16.338;2023-04-07T14:28:36;10.80;77.20
40053;DHT22;25758;48.200;16.338;2023-04-07T14:31:01;10.80;77.10
40053;DHT22;25758;48.200;16.338;2023-04-07T14:33:27;10.80;76.60
40053;DHT22;25758;48.200;16.338;2023-04-07T14:35:53;10.70;77.00
40053;DHT22;25758;48.200;16.338;2023-04-07T14:38:18;10.70;76.70
40053;DHT22;25758;48.200;16.338;2023-04-07T14:40:48;10.70;76.90
40053;DHT22;25758;48.200;16.338;2023-04-07T14:43:14;10.70;77.80
40053;DHT22;25758;48.200;16.338;2023-04-07T14:45:40;10.60;77.20
40053;DHT22;25758;48.200;16.338;2023-04-07T14:48:05;10.60;77.30
40053;DHT22;25758;48.200;16.338;2023-04-07T14:50:32;10.50;78.00
40053;DHT22;25758;48.200;16.338;2023-04-07T14:52:58;10.50;78.40
40053;DHT22;25758;48.200;16.338;2023-04-07T14:55:24;10.40;78.40
40053;DHT22;25758;48.200;16.338;2023-04-07T14:57:50;10.40;78.20
40053;DHT22;25758;48.200;16.338;2023-04-07T15:02:41;10.30;78.80
40053;DHT22;25758;48.200;16.338;2023-04-07T15:05:07;10.30;79.20
40053;DHT22;25758;48.200;16.338;2023-04-07T15:07:33;10.30;78.80
40053;DHT22;25758;48.200;16.338;2023-04-07T15:27:05;10.20;78.50
40053;DHT22;25758;48.200;16.338;2023-04-07T15:36:49;10.10;78.00
40053;DHT22;25758;48.200;16.338;2023-04-07T15:46:33;10.10;78.50
40053;DHT22;25758;48.200;16.338;2023-04-07T15:51:28;10.10;79.10
40053;DHT22;25758;48.200;16.338;2023-04-07T16:01:14;10.00;82.40
40053;DHT22;25758;48.200;16.338;2023-04-07T16:06:06;9.90;83.10
40053;DHT22;25758;48.200;16.338;2023-04-07T16:15:54;9.80;84.90
40053;DHT22;25758;48.200;16.338;2023-04-07T17:07:11;9.30;88.70
40053;DHT22;25758;48.200;16.338;2023-04-07T17:26:44;9.20;89.90
40053;DHT22;25758;48.200;16.338;2023-04-07T17:29:11;9.20;90.00
40053;DHT22;25758;48.200;16.338;2023-04-07T17:31:37;9.20;90.20
40053;DHT22;25758;48.200;16.338;2023-04-07T17:34:03;9.20;90.10
40053;DHT22;25758;48.200;16.338;2023-04-07T17:36:31;9.20;90.20
40053;DHT22;25758;48.200;16.338;2023-04-07T17:38:58;9.20;90.00
40053;DHT22;25758;48.200;16.338;2023-04-07T17:41:24;9.20;90.20
40053;DHT22;25758;48.200;16.338;2023-04-07T17:43:57;9.20;90.10
40053;DHT22;25758;48.200;16.338;2023-04-07T17:46:23;9.20;90.20
40053;DHT22;25758;48.200;16.338;2023-04-07T17:48:48;9.20;90.40
40053;DHT22;25758;48.200;16.338;2023-04-07T17:51:15;9.20;90.50
40053;DHT22;25758;48.200;16.338;2023-04-07T17:53:41;9.10;90.70
40053;DHT22;25758;48.200;16.338;2023-04-07T17:56:06;9.10;90.80
40053;DHT22;25758;48.200;16.338;2023-04-07T17:58:32;9.10;91.00
40053;DHT22;25758;48.200;16.338;2023-04-07T18:00:58;9.10;90.80
40053;DHT22;25758;48.200;16.338;2023-04-07T18:03:24;9.10;91.10
40053;DHT22;25758;48.200;16.338;2023-04-07T18:05:49;9.10;91.10
40053;DHT22;25758;48.200;16.338;2023-04-07T18:08:15;9.10;91.20
40053;DHT22;25758;48.200;16.338;2023-04-07T18:10:40;9.00;91.40
40053;DHT22;25758;48.200;16.338;2023-04-07T18:13:06;9.10;91.40
40053;DHT22;25758;48.200;16.338;2023-04-07T18:15:32;9.00;91.40
40053;DHT22;25758;48.200;16.338;2023-04-07T18:17:58;9.00;91.40
40053;DHT22;25758;48.200;16.338;2023-04-07T18:20:24;9.10;91.50
40053;DHT22;25758;48.200;16.338;2023-04-07T18:22:50;9.00;91.50
40053;DHT22;25758;48.200;16.338;2023-04-07T18:25:16;9.10;91.50
40053;DHT22;25758;48.200;16.338;2023-04-07T18:27:42;9.10;91.60
40053;DHT22;25758;48.200;16.338;2023-04-07T18:30:08;9.10;91.60
40053;DHT22;25758;48.200;16.338;2023-04-07T18:32:34;9.10;91.60
40053;DHT22;25758;48.200;16.338;2023-04-07T18:35:00;9.00;91.80
40053;DHT22;25758;48.200;16.338;2023-04-07T18:37:25;9.00;91.90
40053;DHT22;25758;48.200;16.338;2023-04-07T18:39:51;9.00;92.10
40053;DHT22;25758;48.200;16.338;2023-04-07T18:42:18;9.00;92.10
40053;DHT22;25758;48.200;16.338;2023-04-07T18:47:09;9.00;92.00
40053;DHT22;25758;48.200;16.338;2023-04-07T18:49:35;9.00;92.30
40053;DHT22;25758;48.200;16.338;2023-04-07T18:52:01;8.90;92.10
40053;DHT22;25758;48.200;16.338;2023-04-07T18:54:27;9.00;92.70
40053;DHT22;25758;48.200;16.338;2023-04-07T18:56:53;9.00;92.70
40053;DHT22;25758;48.200;16.338;2023-04-07T18:59:18;9.00;92.80
40053;DHT22;25758;48.200;16.338;2023-04-07T19:01:44;8.90;92.90
40053;DHT22;25758;48.200;16.338;2023-04-07T19:04:10;8.90;92.60
40053;DHT22;25758;48.200;16.338;2023-04-07T19:06:36;8.90;92.60
40053;DHT22;25758;48.200;16.338;2023-04-07T19:11:28;9.00;92.80
40053;DHT22;25758;48.200;16.338;2023-04-07T19:13:54;8.90;93.00
40053;DHT22;25758;48.200;16.338;2023-04-07T19:16:21;8.90;93.00
40053;DHT22;25758;48.200;16.338;2023-04-07T19:21:16;8.90;93.20
40053;DHT22;25758;48.200;16.338;2023-04-07T19:23:41;8.90;93.20
40053;DHT22;25758;48.200;16.338;2023-04-07T19:26:11;8.90;93.30
40053;DHT22;25758;48.200;16.338;2023-04-07T19:28:37;8.90;93.70
40053;DHT22;25758;48.200;16.338;2023-04-07T19:31:07;8.90;93.60
40053;DHT22;25758;48.200;16.338;2023-04-07T19:33:33;8.90;93.90
40053;DHT22;25758;48.200;16.338;2023-04-07T19:35:59;8.90;94.20
40053;DHT22;25758;48.200;16.338;2023-04-07T19:38:25;9.10;94.30
40053;DHT22;25758;48.200;16.338;2023-04-07T19:40:51;8.80;94.40
40053;DHT22;25758;48.200;16.338;2023-04-07T19:43:17;8.80;94.70
40053;DHT22;25758;48.200;16.338;2023-04-07T19:45:46;8.80;94.80
40053;DHT22;25758;48.200;16.338;2023-04-07T19:48:12;8.80;95.20
40053;DHT22;25758;48.200;16.338;2023-04-07T19:50:38;8.80;95.70
40053;DHT22;25758;48.200;16.338;2023-04-07T19:53:08;8.80;95.60
40053;DHT22;25758;48.200;16.338;2023-04-07T19:55:34;8.80;95.60
40053;DHT22;25758;48.200;16.338;2023-04-07T19:58:01;8.80;95.70
40053;DHT22;25758;48.200;16.338;2023-04-07T20:00:27;8.70;95.90
40053;DHT22;25758;48.200;16.338;2023-04-07T20:02:55;8.80;96.40
40053;DHT22;25758;48.200;16.338;2023-04-07T20:05:21;8.70;96.30